sensor_id;sensor_type;location;lat;lon;timestamp;P1;durP1;ratioP1;P2;durP2;ratioP2
76631;SDS011;65526;48.578;-4.520;2022-12-26T00:01:34;12.18;;;1.00;;
76631;SDS011;65526;48.578;-4.520;2022-12-26T00:04:04;16.38;;;1.65;;
76631;SDS011;65526;48.578;-4.520;2022-12-26T00:06:38;9.05;;;1.00;;
76631;SDS011;65526;48.578;-4.520;2022-12-26T00:09:06;9.43;;;1.05;;
76631;SDS011;65526;48.578;-4.520;2022-12-26T00:11:34;11.15;;;1.70;;
76631;SDS011;65526;48.578;-4.520;2022-12-26T00:14:05;20.00;;;1.33;;
76631;SDS011;65526;48.578;-4.520;2022-12-26T00:16:33;8.07;;;1.08;;
76631;SDS011;65526;48.578;-4.520;2022-12-26T00:19:03;13.98;;;1.40;;
76631;SDS011;65526;48.578;-4.520;2022-12-26T00:21:30;14.73;;;1.88;;
76631;SDS011;65526;48.578;-4.520;2022-12-26T00:23:57;15.93;;;1.45;;
76631;SDS011;65526;48.578;-4.520;2022-12-26T00:26:28;9.60;;;1.20;;
76631;SDS011;65526;48.578;-4.520;2022-12-26T00:28:59;18.35;;;1.85;;
76631;SDS011;65526;48.578;-4.520;2022-12-26T00:31:27;13.65;;;1.48;;
76631;SDS011;65526;48.578;-4.520;2022-12-26T00:33:58;11.68;;;2.28;;
76631;SDS011;65526;48.578;-4.520;2022-12-26T00:36:26;16.42;;;1.55;;
76631;SDS011;65526;48.578;-4.520;2022-12-26T00:41:22;13.88;;;1.50;;
76631;SDS011;65526;48.578;-4.520;2022-12-26T00:43:50;13.93;;;2.08;;
76631;SDS011;65526;48.578;-4.520;2022-12-26T00:46:18;13.80;;;1.40;;
76631;SDS011;65526;48.578;-4.520;2022-12-26T00:48:48;17.50;;;1.50;;
76631;SDS011;65526;48.578;-4.520;2022-12-26T00:51:14;11.38;;;1.42;;
76631;SDS011;65526;48.578;-4.520;2022-12-26T00:53:48;18.05;;;1.75;;
76631;SDS011;65526;48.578;-4.520;2022-12-26T00:56:17;11.88;;;1.60;;
76631;SDS011;65526;48.578;-4.520;2022-12-26T00:58:43;13.57;;;1.02;;
76631;SDS011;65526;48.578;-4.520;2022-12-26T01:01:14;21.02;;;2.03;;
76631;SDS011;65526;48.578;-4.520;2022-12-26T01:03:47;21.55;;;4.20;;
76631;SDS011;65526;48.578;-4.520;2022-12-26T01:06:15;15.18;;;1.15;;
76631;SDS011;65526;48.578;-4.520;2022-12-26T01:08:45;14.82;;;1.42;;
76631;SDS011;65526;48.578;-4.520;2022-12-26T01:16:44;17.95;;;1.58;;
76631;SDS011;65526;48.578;-4.520;2022-12-26T01:19:12;13.55;;;1.30;;
76631;SDS011;65526;48.578;-4.520;2022-12-26T01:21:39;17.35;;;1.88;;
76631;SDS011;65526;48.578;-4.520;2022-12-26T01:24:07;16.23;;;2.38;;
76631;SDS011;65526;48.578;-4.520;2022-12-26T01:26:34;16.35;;;2.05;;
76631;SDS011;65526;48.578;-4.520;2022-12-26T01:29:03;22.27;;;2.42;;
76631;SDS011;65526;48.578;-4.520;2022-12-26T01:31:30;15.77;;;1.55;;
76631;SDS011;65526;48.578;-4.520;2022-12-26T01:33:59;20.67;;;1.65;;
76631;SDS011;65526;48.578;-4.520;2022-12-26T01:36:25;20.77;;;2.15;;
76631;SDS011;65526;48.578;-4.520;2022-12-26T01:39:07;18.02;;;2.30;;
76631;SDS011;65526;48.578;-4.520;2022-12-26T06:16:18;6.50;;;0.82;;
76631;SDS011;65526;48.578;-4.520;2022-12-26T06:18:45;7.65;;;0.90;;
76631;SDS011;65526;48.578;-4.520;2022-12-26T06:21:13;6.88;;;1.52;;
76631;SDS011;65526;48.578;-4.520;2022-12-26T06:26:21;9.05;;;1.08;;
76631;SDS011;65526;48.578;-4.520;2022-12-26T06:28:48;11.18;;;1.23;;
76631;SDS011;65526;48.578;-4.520;2022-12-26T06:31:15;7.20;;;1.00;;
76631;SDS011;65526;48.578;-4.520;2022-12-26T06:33:45;11.30;;;1.30;;
76631;SDS011;65526;48.578;-4.520;2022-12-26T06:36:14;4.78;;;0.60;;
76631;SDS011;65526;48.578;-4.520;2022-12-26T06:38:41;8.80;;;0.82;;
76631;SDS011;65526;48.578;-4.520;2022-12-26T06:41:09;9.60;;;1.63;;
76631;SDS011;65526;48.578;-4.520;2022-12-26T06:43:38;13.93;;;1.92;;
76631;SDS011;65526;48.578;-4.520;2022-12-26T06:46:05;3.92;;;0.80;;
76631;SDS011;65526;48.578;-4.520;2022-12-26T06:48:33;14.48;;;1.45;;
76631;SDS011;65526;48.578;-4.520;2022-12-26T06:51:04;12.45;;;1.48;;
76631;SDS011;65526;48.578;-4.520;2022-12-26T06:53:33;5.82;;;1.00;;
76631;SDS011;65526;48.578;-4.520;2022-12-26T06:56:12;6.18;;;0.95;;
76631;SDS011;65526;48.578;-4.520;2022-12-26T06:58:41;7.15;;;1.17;;
76631;SDS011;65526;48.578;-4.520;2022-12-26T07:01:13;5.47;;;1.02;;
76631;SDS011;65526;48.578;-4.520;2022-12-26T07:03:41;7.68;;;1.13;;
76631;SDS011;65526;48.578;-4.520;2022-12-26T07:06:12;3.72;;;0.60;;
76631;SDS011;65526;48.578;-4.520;2022-12-26T07:08:47;10.15;;;1.70;;
76631;SDS011;65526;48.578;-4.520;2022-12-26T07:11:17;8.60;;;1.02;;
76631;SDS011;65526;48.578;-4.520;2022-12-26T07:13:46;5.28;;;0.90;;
76631;SDS011;65526;48.578;-4.520;2022-12-26T07:16:12;9.55;;;0.85;;
76631;SDS011;65526;48.578;-4.520;2022-12-26T07:18:40;6.75;;;2.28;;
76631;SDS011;65526;48.578;-4.520;2022-12-26T07:21:07;8.02;;;0.85;;
76631;SDS011;65526;48.578;-4.520;2022-12-26T07:23:35;7.72;;;2.03;;
76631;SDS011;65526;48.578;-4.520;2022-12-26T07:26:01;4.03;;;0.80;;
76631;SDS011;65526;48.578;-4.520;2022-12-26T07:28:28;4.18;;;0.60;;
76631;SDS011;65526;48.578;-4.520;2022-12-26T07:30:54;8.93;;;0.90;;
76631;SDS011;65526;48.578;-4.520;2022-12-26T07:33:22;7.25;;;1.08;;
76631;SDS011;65526;48.578;-4.520;2022-12-26T07:35:49;10.23;;;0.82;;
76631;SDS011;65526;48.578;-4.520;2022-12-26T07:38:16;5.03;;;0.63;;
76631;SDS011;65526;48.578;-4.520;2022-12-26T07:40:42;7.72;;;0.73;;
76631;SDS011;65526;48.578;-4.520;2022-12-26T07:43:09;14.43;;;1.10;;
76631;SDS011;65526;48.578;-4.520;2022-12-26T07:45:36;5.55;;;0.73;;
76631;SDS011;65526;48.578;-4.520;2022-12-26T07:48:02;10.45;;;1.10;;
76631;SDS011;65526;48.578;-4.520;2022-12-26T07:50:28;7.65;;;1.33;;
76631;SDS011;65526;48.578;-4.520;2022-12-26T07:52:56;7.82;;;0.65;;
76631;SDS011;65526;48.578;-4.520;2022-12-26T07:55:25;4.45;;;0.60;;
76631;SDS011;65526;48.578;-4.520;2022-12-26T07:57:51;8.23;;;1.75;;
76631;SDS011;65526;48.578;-4.520;2022-12-26T08:00:18;8.52;;;1.02;;
76631;SDS011;65526;48.578;-4.520;2022-12-26T08:02:48;12.82;;;1.58;;
76631;SDS011;65526;48.578;-4.520;2022-12-26T08:05:16;6.30;;;0.75;;
76631;SDS011;65526;48.578;-4.520;2022-12-26T08:07:44;8.98;;;0.90;;
76631;SDS011;65526;48.578;-4.520;2022-12-26T08:10:13;11.85;;;0.88;;
76631;SDS011;65526;48.578;-4.520;2022-12-26T08:12:42;12.43;;;0.93;;
76631;SDS011;65526;48.578;-4.520;2022-12-26T08:15:10;4.57;;;0.90;;
76631;SDS011;65526;48.578;-4.520;2022-12-26T08:17:37;7.88;;;1.08;;
76631;SDS011;65526;48.578;-4.520;2022-12-26T08:20:04;14.23;;;2.25;;
76631;SDS011;65526;48.578;-4.520;2022-12-26T08:22:31;8.38;;;0.82;;
76631;SDS011;65526;48.578;-4.520;2022-12-26T08:24:57;7.75;;;1.05;;
76631;SDS011;65526;48.578;-4.520;2022-12-26T08:27:23;6.22;;;1.00;;
76631;SDS011;65526;48.578;-4.520;2022-12-26T08:29:50;5.07;;;1.00;;
76631;SDS011;65526;48.578;-4.520;2022-12-26T08:32:16;4.90;;;1.25;;
76631;SDS011;65526;48.578;-4.520;2022-12-26T08:34:43;16.20;;;2.13;;
76631;SDS011;65526;48.578;-4.520;2022-12-26T08:37:09;4.90;;;0.82;;
76631;SDS011;65526;48.578;-4.520;2022-12-26T08:39:35;32.15;;;1.83;;
76631;SDS011;65526;48.578;-4.520;2022-12-26T08:42:02;6.75;;;1.45;;
76631;SDS011;65526;48.578;-4.520;2022-12-26T08:44:29;4.93;;;0.93;;
76631;SDS011;65526;48.578;-4.520;2022-12-26T08:46:55;8.68;;;0.98;;
76631;SDS011;65526;48.578;-4.520;2022-12-26T08:49:22;4.95;;;0.77;;
76631;SDS011;65526;48.578;-4.520;2022-12-26T08:51:48;5.63;;;0.95;;
76631;SDS011;65526;48.578;-4.520;2022-12-26T08:54:15;5.13;;;0.80;;
76631;SDS011;65526;48.578;-4.520;2022-12-26T08:56:41;4.82;;;1.30;;
76631;SDS011;65526;48.578;-4.520;2022-12-26T08:59:08;8.93;;;1.00;;
76631;SDS011;65526;48.578;-4.520;2022-12-26T09:01:34;5.05;;;0.90;;
76631;SDS011;65526;48.578;-4.520;2022-12-26T09:04:02;10.57;;;1.55;;
76631;SDS011;65526;48.578;-4.520;2022-12-26T09:06:30;5.75;;;1.75;;
76631;SDS011;65526;48.578;-4.520;2022-12-26T09:08:58;7.15;;;1.52;;
76631;SDS011;65526;48.578;-4.520;2022-12-26T09:11:25;10.98;;;1.17;;
76631;SDS011;65526;48.578;-4.520;2022-12-26T09:13:52;5.55;;;0.57;;
76631;SDS011;65526;48.578;-4.520;2022-12-26T09:16:24;6.60;;;1.00;;
76631;SDS011;65526;48.578;-4.520;2022-12-26T09:18:54;5.50;;;0.88;;
76631;SDS011;65526;48.578;-4.520;2022-12-26T09:21:23;5.50;;;0.63;;
76631;SDS011;65526;48.578;-4.520;2022-12-26T09:23:54;5.63;;;1.42;;
76631;SDS011;65526;48.578;-4.520;2022-12-26T09:26:25;15.48;;;1.67;;
76631;SDS011;65526;48.578;-4.520;2022-12-26T09:28:52;7.43;;;1.33;;
76631;SDS011;65526;48.578;-4.520;2022-12-26T09:31:20;6.32;;;0.90;;
76631;SDS011;65526;48.578;-4.520;2022-12-26T09:33:49;6.10;;;1.00;;
76631;SDS011;65526;48.578;-4.520;2022-12-26T09:36:17;3.40;;;0.82;;
76631;SDS011;65526;48.578;-4.520;2022-12-26T09:38:46;6.18;;;0.70;;
76631;SDS011;65526;48.578;-4.520;2022-12-26T09:41:21;7.10;;;0.90;;
76631;SDS011;65526;48.578;-4.520;2022-12-26T09:44:22;5.38;;;0.80;;
76631;SDS011;65526;48.578;-4.520;2022-12-26T09:47:06;4.78;;;0.88;;
76631;SDS011;65526;48.578;-4.520;2022-12-26T09:52:26;1.30;;;0.55;;
76631;SDS011;65526;48.578;-4.520;2022-12-26T09:55:16;7.93;;;1.63;;
76631;SDS011;65526;48.578;-4.520;2022-12-26T09:57:52;7.40;;;1.08;;
76631;SDS011;65526;48.578;-4.520;2022-12-26T10:00:24;8.65;;;0.98;;
76631;SDS011;65526;48.578;-4.520;2022-12-26T10:02:58;5.88;;;0.80;;
76631;SDS011;65526;48.578;-4.520;2022-12-26T10:05:27;6.38;;;1.10;;
76631;SDS011;65526;48.578;-4.520;2022-12-26T10:08:45;8.52;;;1.17;;
76631;SDS011;65526;48.578;-4.520;2022-12-26T10:11:00;4.53;;;1.00;;
76631;SDS011;65526;48.578;-4.520;2022-12-26T10:13:32;9.93;;;1.45;;
76631;SDS011;65526;48.578;-4.520;2022-12-26T10:16:12;3.70;;;0.65;;
76631;SDS011;65526;48.578;-4.520;2022-12-26T10:25:34;2.17;;;0.60;;
76631;SDS011;65526;48.578;-4.520;2022-12-26T10:30:46;5.97;;;1.02;;
76631;SDS011;65526;48.578;-4.520;2022-12-26T10:33:17;4.75;;;0.75;;
76631;SDS011;65526;48.578;-4.520;2022-12-26T10:35:52;8.48;;;0.90;;
76631;SDS011;65526;48.578;-4.520;2022-12-26T10:38:35;5.45;;;0.95;;
76631;SDS011;65526;48.578;-4.520;2022-12-26T10:41:19;7.22;;;1.33;;
76631;SDS011;65526;48.578;-4.520;2022-12-26T10:43:50;12.82;;;1.15;;
76631;SDS011;65526;48.578;-4.520;2022-12-26T10:49:13;6.03;;;0.88;;
76631;SDS011;65526;48.578;-4.520;2022-12-26T10:51:43;6.50;;;1.52;;
76631;SDS011;65526;48.578;-4.520;2022-12-26T10:54:12;8.60;;;1.13;;
76631;SDS011;65526;48.578;-4.520;2022-12-26T10:56:46;5.70;;;0.98;;
76631;SDS011;65526;48.578;-4.520;2022-12-26T10:59:16;7.25;;;0.70;;
76631;SDS011;65526;48.578;-4.520;2022-12-26T11:01:46;5.82;;;0.90;;
76631;SDS011;65526;48.578;-4.520;2022-12-26T11:04:20;4.63;;;0.82;;
76631;SDS011;65526;48.578;-4.520;2022-12-26T11:06:49;7.43;;;1.10;;
76631;SDS011;65526;48.578;-4.520;2022-12-26T11:09:29;3.80;;;0.93;;
76631;SDS011;65526;48.578;-4.520;2022-12-26T11:12:03;4.82;;;1.30;;
76631;SDS011;65526;48.578;-4.520;2022-12-26T11:16:59;6.93;;;1.00;;
76631;SDS011;65526;48.578;-4.520;2022-12-26T11:19:31;12.48;;;0.93;;
76631;SDS011;65526;48.578;-4.520;2022-12-26T11:22:13;9.18;;;1.33;;
76631;SDS011;65526;48.578;-4.520;2022-12-26T11:27:35;5.47;;;0.90;;
76631;SDS011;65526;48.578;-4.520;2022-12-26T11:32:39;12.85;;;1.35;;
76631;SDS011;65526;48.578;-4.520;2022-12-26T11:35:15;3.63;;;0.90;;
76631;SDS011;65526;48.578;-4.520;2022-12-26T11:37:55;8.68;;;0.95;;
76631;SDS011;65526;48.578;-4.520;2022-12-26T11:40:23;5.10;;;0.85;;
76631;SDS011;65526;48.578;-4.520;2022-12-26T11:42:56;6.05;;;0.90;;
76631;SDS011;65526;48.578;-4.520;2022-12-26T11:45:26;5.35;;;0.68;;
76631;SDS011;65526;48.578;-4.520;2022-12-26T11:47:56;10.70;;;1.77;;
76631;SDS011;65526;48.578;-4.520;2022-12-26T11:50:26;10.25;;;1.00;;
76631;SDS011;65526;48.578;-4.520;2022-12-26T11:57:57;5.43;;;1.27;;
76631;SDS011;65526;48.578;-4.520;2022-12-26T12:00:32;5.80;;;0.90;;
76631;SDS011;65526;48.578;-4.520;2022-12-26T12:03:11;6.32;;;0.50;;
76631;SDS011;65526;48.578;-4.520;2022-12-26T12:25:32;3.22;;;0.35;;
76631;SDS011;65526;48.578;-4.520;2022-12-26T12:31:17;7.25;;;0.65;;
76631;SDS011;65526;48.578;-4.520;2022-12-26T12:34:20;3.58;;;0.55;;
76631;SDS011;65526;48.578;-4.520;2022-12-26T12:39:50;7.97;;;0.60;;
76631;SDS011;65526;48.578;-4.520;2022-12-26T12:45:25;5.30;;;0.95;;
76631;SDS011;65526;48.578;-4.520;2022-12-26T12:51:13;7.55;;;1.65;;
76631;SDS011;65526;48.578;-4.520;2022-12-26T13:01:56;7.78;;;1.42;;
76631;SDS011;65526;48.578;-4.520;2022-12-26T13:04:28;2.60;;;0.85;;
76631;SDS011;65526;48.578;-4.520;2022-12-26T13:07:02;6.95;;;1.10;;
76631;SDS011;65526;48.578;-4.520;2022-12-26T13:09:41;5.50;;;1.05;;
76631;SDS011;65526;48.578;-4.520;2022-12-26T13:12:18;5.90;;;1.15;;
76631;SDS011;65526;48.578;-4.520;2022-12-26T13:14:50;6.47;;;1.48;;
76631;SDS011;65526;48.578;-4.520;2022-12-26T13:17:30;3.97;;;0.80;;
76631;SDS011;65526;48.578;-4.520;2022-12-26T13:22:46;4.60;;;0.50;;
76631;SDS011;65526;48.578;-4.520;2022-12-26T13:25:42;6.28;;;0.60;;
76631;SDS011;65526;48.578;-4.520;2022-12-26T13:28:16;2.00;;;0.28;;
76631;SDS011;65526;48.578;-4.520;2022-12-26T13:30:53;3.40;;;0.90;;
76631;SDS011;65526;48.578;-4.520;2022-12-26T13:33:20;7.07;;;1.02;;
76631;SDS011;65526;48.578;-4.520;2022-12-26T13:36:03;4.32;;;1.02;;
76631;SDS011;65526;48.578;-4.520;2022-12-26T13:41:26;5.70;;;0.60;;
76631;SDS011;65526;48.578;-4.520;2022-12-26T13:44:25;2.90;;;0.60;;
76631;SDS011;65526;48.578;-4.520;2022-12-26T13:46:57;7.93;;;0.93;;
76631;SDS011;65526;48.578;-4.520;2022-12-26T13:49:32;4.53;;;0.70;;
76631;SDS011;65526;48.578;-4.520;2022-12-26T13:54:46;5.93;;;0.40;;
76631;SDS011;65526;48.578;-4.520;2022-12-26T14:27:54;7.13;;;0.63;;
76631;SDS011;65526;48.578;-4.520;2022-12-26T14:30:36;7.55;;;0.60;;
76631;SDS011;65526;48.578;-4.520;2022-12-26T14:36:34;4.35;;;0.43;;
76631;SDS011;65526;48.578;-4.520;2022-12-26T14:39:09;6.07;;;0.40;;
76631;SDS011;65526;48.578;-4.520;2022-12-26T14:45:11;5.80;;;1.23;;
76631;SDS011;65526;48.578;-4.520;2022-12-26T14:47:57;5.80;;;1.02;;
76631;SDS011;65526;48.578;-4.520;2022-12-26T14:55:54;5.57;;;0.77;;
76631;SDS011;65526;48.578;-4.520;2022-12-26T15:03:58;3.25;;;0.50;;
76631;SDS011;65526;48.578;-4.520;2022-12-26T15:15:02;3.50;;;0.47;;
76631;SDS011;65526;48.578;-4.520;2022-12-26T15:17:49;6.35;;;1.42;;
76631;SDS011;65526;48.578;-4.520;2022-12-26T16:25:04;6.90;;;1.30;;
76631;SDS011;65526;48.578;-4.520;2022-12-26T16:27:34;7.47;;;0.95;;
76631;SDS011;65526;48.578;-4.520;2022-12-26T16:30:04;7.65;;;1.00;;
76631;SDS011;65526;48.578;-4.520;2022-12-26T16:32:36;3.10;;;0.98;;
76631;SDS011;65526;48.578;-4.520;2022-12-26T16:35:05;6.75;;;1.67;;
76631;SDS011;65526;48.578;-4.520;2022-12-26T16:37:33;5.68;;;0.75;;
76631;SDS011;65526;48.578;-4.520;2022-12-26T16:42:57;2.55;;;0.80;;
76631;SDS011;65526;48.578;-4.520;2022-12-26T16:45:25;3.97;;;0.65;;
76631;SDS011;65526;48.578;-4.520;2022-12-26T16:47:53;5.55;;;0.65;;
76631;SDS011;65526;48.578;-4.520;2022-12-26T16:50:25;5.35;;;1.00;;
76631;SDS011;65526;48.578;-4.520;2022-12-26T16:53:15;9.20;;;0.90;;
76631;SDS011;65526;48.578;-4.520;2022-12-26T16:55:51;4.65;;;0.68;;
76631;SDS011;65526;48.578;-4.520;2022-12-26T17:00:50;5.15;;;0.95;;
76631;SDS011;65526;48.578;-4.520;2022-12-26T17:06:21;11.00;;;3.47;;
76631;SDS011;65526;48.578;-4.520;2022-12-26T17:08:51;7.45;;;1.52;;
76631;SDS011;65526;48.578;-4.520;2022-12-26T17:11:24;4.32;;;2.08;;
76631;SDS011;65526;48.578;-4.520;2022-12-26T17:13:53;8.07;;;1.60;;
76631;SDS011;65526;48.578;-4.520;2022-12-26T17:16:24;7.90;;;1.83;;
76631;SDS011;65526;48.578;-4.520;2022-12-26T17:18:54;5.85;;;1.55;;
76631;SDS011;65526;48.578;-4.520;2022-12-26T17:24:48;9.55;;;2.08;;
76631;SDS011;65526;48.578;-4.520;2022-12-26T17:29:45;8.73;;;2.05;;
76631;SDS011;65526;48.578;-4.520;2022-12-26T17:34:45;8.15;;;2.42;;
76631;SDS011;65526;48.578;-4.520;2022-12-26T17:37:15;8.63;;;2.45;;
76631;SDS011;65526;48.578;-4.520;2022-12-26T17:40:04;10.65;;;2.90;;
76631;SDS011;65526;48.578;-4.520;2022-12-26T17:42:43;4.90;;;1.60;;
76631;SDS011;65526;48.578;-4.520;2022-12-26T17:45:22;19.10;;;4.90;;
76631;SDS011;65526;48.578;-4.520;2022-12-26T17:47:50;6.40;;;2.25;;
76631;SDS011;65526;48.578;-4.520;2022-12-26T17:50:21;6.97;;;1.38;;
76631;SDS011;65526;48.578;-4.520;2022-12-26T17:52:49;3.63;;;0.88;;
76631;SDS011;65526;48.578;-4.520;2022-12-26T17:55:24;4.78;;;0.80;;
76631;SDS011;65526;48.578;-4.520;2022-12-26T17:57:51;2.65;;;1.15;;
76631;SDS011;65526;48.578;-4.520;2022-12-26T18:00:19;4.78;;;1.30;;
76631;SDS011;65526;48.578;-4.520;2022-12-26T18:02:48;3.92;;;0.95;;
76631;SDS011;65526;48.578;-4.520;2022-12-26T18:05:14;7.65;;;1.55;;
76631;SDS011;65526;48.578;-4.520;2022-12-26T18:07:42;3.80;;;1.15;;
76631;SDS011;65526;48.578;-4.520;2022-12-26T18:10:15;5.43;;;1.63;;
76631;SDS011;65526;48.578;-4.520;2022-12-26T18:12:51;4.75;;;1.38;;
76631;SDS011;65526;48.578;-4.520;2022-12-26T18:15:18;10.43;;;1.75;;
76631;SDS011;65526;48.578;-4.520;2022-12-26T18:17:46;8.77;;;2.60;;
76631;SDS011;65526;48.578;-4.520;2022-12-26T18:20:17;5.82;;;1.42;;
76631;SDS011;65526;48.578;-4.520;2022-12-26T18:22:49;8.15;;;1.80;;
76631;SDS011;65526;48.578;-4.520;2022-12-26T18:25:17;9.32;;;3.67;;
76631;SDS011;65526;48.578;-4.520;2022-12-26T18:27:47;10.40;;;3.00;;
76631;SDS011;65526;48.578;-4.520;2022-12-26T18:30:18;11.90;;;2.50;;
76631;SDS011;65526;48.578;-4.520;2022-12-26T18:32:48;5.40;;;1.58;;
76631;SDS011;65526;48.578;-4.520;2022-12-26T18:35:15;6.18;;;1.45;;
76631;SDS011;65526;48.578;-4.520;2022-12-26T18:37:44;8.65;;;1.52;;
76631;SDS011;65526;48.578;-4.520;2022-12-26T18:42:48;9.70;;;2.85;;
76631;SDS011;65526;48.578;-4.520;2022-12-26T18:45:14;10.10;;;3.40;;
76631;SDS011;65526;48.578;-4.520;2022-12-26T18:47:40;13.05;;;4.75;;
76631;SDS011;65526;48.578;-4.520;2022-12-26T18:50:10;17.55;;;4.38;;
76631;SDS011;65526;48.578;-4.520;2022-12-26T18:52:39;9.63;;;3.10;;
76631;SDS011;65526;48.578;-4.520;2022-12-26T18:55:06;15.88;;;3.58;;
76631;SDS011;65526;48.578;-4.520;2022-12-26T18:57:33;10.80;;;3.53;;
76631;SDS011;65526;48.578;-4.520;2022-12-26T19:00:00;15.32;;;5.85;;
76631;SDS011;65526;48.578;-4.520;2022-12-26T19:02:27;13.32;;;3.97;;
76631;SDS011;65526;48.578;-4.520;2022-12-26T19:04:53;9.13;;;1.48;;
76631;SDS011;65526;48.578;-4.520;2022-12-26T19:07:20;2.90;;;0.40;;
76631;SDS011;65526;48.578;-4.520;2022-12-26T19:09:48;1.75;;;0.30;;
76631;SDS011;65526;48.578;-4.520;2022-12-26T19:12:20;3.28;;;0.98;;
76631;SDS011;65526;48.578;-4.520;2022-12-26T19:14:47;4.60;;;0.85;;
76631;SDS011;65526;48.578;-4.520;2022-12-26T19:17:14;4.43;;;0.80;;
76631;SDS011;65526;48.578;-4.520;2022-12-26T19:19:41;4.20;;;1.05;;
76631;SDS011;65526;48.578;-4.520;2022-12-26T19:22:08;3.40;;;1.38;;
76631;SDS011;65526;48.578;-4.520;2022-12-26T19:24:35;6.55;;;2.33;;
76631;SDS011;65526;48.578;-4.520;2022-12-26T19:27:02;13.10;;;5.18;;
76631;SDS011;65526;48.578;-4.520;2022-12-26T19:29:28;18.88;;;5.60;;
76631;SDS011;65526;48.578;-4.520;2022-12-26T19:31:55;14.82;;;4.97;;
76631;SDS011;65526;48.578;-4.520;2022-12-26T19:34:22;16.33;;;5.60;;
76631;SDS011;65526;48.578;-4.520;2022-12-26T19:36:48;15.70;;;7.13;;
76631;SDS011;65526;48.578;-4.520;2022-12-26T19:39:15;19.95;;;8.55;;
76631;SDS011;65526;48.578;-4.520;2022-12-26T19:41:41;18.83;;;9.15;;
76631;SDS011;65526;48.578;-4.520;2022-12-26T19:44:08;11.30;;;6.45;;
76631;SDS011;65526;48.578;-4.520;2022-12-26T19:46:34;11.38;;;5.28;;
76631;SDS011;65526;48.578;-4.520;2022-12-26T19:49:01;8.85;;;3.97;;
76631;SDS011;65526;48.578;-4.520;2022-12-26T19:51:28;9.73;;;3.20;;
76631;SDS011;65526;48.578;-4.520;2022-12-26T19:53:54;9.65;;;3.50;;
76631;SDS011;65526;48.578;-4.520;2022-12-26T19:56:22;6.78;;;2.53;;
76631;SDS011;65526;48.578;-4.520;2022-12-26T19:58:50;9.05;;;2.50;;
76631;SDS011;65526;48.578;-4.520;2022-12-26T20:01:18;6.88;;;2.38;;
76631;SDS011;65526;48.578;-4.520;2022-12-26T20:03:47;7.97;;;2.20;;
76631;SDS011;65526;48.578;-4.520;2022-12-26T20:06:18;5.05;;;2.75;;
76631;SDS011;65526;48.578;-4.520;2022-12-26T20:08:47;8.20;;;2.17;;
76631;SDS011;65526;48.578;-4.520;2022-12-26T20:11:16;5.40;;;2.33;;
76631;SDS011;65526;48.578;-4.520;2022-12-26T20:13:47;10.15;;;3.13;;
76631;SDS011;65526;48.578;-4.520;2022-12-26T20:16:15;7.47;;;3.40;;
76631;SDS011;65526;48.578;-4.520;2022-12-26T20:18:43;10.02;;;2.88;;
76631;SDS011;65526;48.578;-4.520;2022-12-26T20:21:10;7.88;;;3.10;;
76631;SDS011;65526;48.578;-4.520;2022-12-26T20:23:37;7.28;;;2.92;;
76631;SDS011;65526;48.578;-4.520;2022-12-26T20:26:06;6.55;;;3.05;;
76631;SDS011;65526;48.578;-4.520;2022-12-26T20:28:43;10.35;;;3.55;;
76631;SDS011;65526;48.578;-4.520;2022-12-26T20:31:10;10.07;;;4.05;;
76631;SDS011;65526;48.578;-4.520;2022-12-26T20:33:39;8.25;;;2.55;;
76631;SDS011;65526;48.578;-4.520;2022-12-26T20:36:10;12.77;;;4.97;;
76631;SDS011;65526;48.578;-4.520;2022-12-26T20:38:41;8.90;;;3.97;;
76631;SDS011;65526;48.578;-4.520;2022-12-26T20:41:08;8.88;;;3.40;;
76631;SDS011;65526;48.578;-4.520;2022-12-26T20:43:35;4.85;;;2.78;;
76631;SDS011;65526;48.578;-4.520;2022-12-26T20:46:10;11.68;;;3.17;;
76631;SDS011;65526;48.578;-4.520;2022-12-26T20:48:41;8.80;;;2.25;;
76631;SDS011;65526;48.578;-4.520;2022-12-26T20:51:12;6.80;;;2.50;;
76631;SDS011;65526;48.578;-4.520;2022-12-26T20:53:40;7.63;;;3.17;;
76631;SDS011;65526;48.578;-4.520;2022-12-26T20:56:07;5.85;;;2.40;;
76631;SDS011;65526;48.578;-4.520;2022-12-26T20:58:34;11.10;;;2.88;;
76631;SDS011;65526;48.578;-4.520;2022-12-26T21:03:29;7.60;;;3.10;;
76631;SDS011;65526;48.578;-4.520;2022-12-26T21:06:13;7.18;;;3.00;;
76631;SDS011;65526;48.578;-4.520;2022-12-26T21:08:47;7.85;;;3.35;;
76631;SDS011;65526;48.578;-4.520;2022-12-26T21:11:22;10.13;;;3.95;;
76631;SDS011;65526;48.578;-4.520;2022-12-26T21:13:53;10.50;;;4.25;;
76631;SDS011;65526;48.578;-4.520;2022-12-26T21:16:40;10.32;;;3.40;;
76631;SDS011;65526;48.578;-4.520;2022-12-26T21:19:10;11.43;;;3.40;;
76631;SDS011;65526;48.578;-4.520;2022-12-26T21:21:38;8.02;;;2.92;;
76631;SDS011;65526;48.578;-4.520;2022-12-26T21:24:07;5.30;;;2.50;;
76631;SDS011;65526;48.578;-4.520;2022-12-26T21:26:38;7.80;;;2.50;;
76631;SDS011;65526;48.578;-4.520;2022-12-26T21:29:07;4.30;;;1.90;;
76631;SDS011;65526;48.578;-4.520;2022-12-26T21:31:36;8.20;;;2.13;;
76631;SDS011;65526;48.578;-4.520;2022-12-26T21:34:03;7.70;;;2.30;;
76631;SDS011;65526;48.578;-4.520;2022-12-26T21:36:30;4.32;;;1.98;;
76631;SDS011;65526;48.578;-4.520;2022-12-26T21:38:58;3.38;;;2.20;;
76631;SDS011;65526;48.578;-4.520;2022-12-26T21:41:24;7.47;;;2.10;;
76631;SDS011;65526;48.578;-4.520;2022-12-26T21:43:54;9.10;;;2.03;;
76631;SDS011;65526;48.578;-4.520;2022-12-26T21:46:20;6.93;;;1.70;;
76631;SDS011;65526;48.578;-4.520;2022-12-26T21:48:47;9.10;;;1.92;;
76631;SDS011;65526;48.578;-4.520;2022-12-26T21:51:15;7.70;;;1.88;;
76631;SDS011;65526;48.578;-4.520;2022-12-26T21:53:43;6.15;;;1.88;;
76631;SDS011;65526;48.578;-4.520;2022-12-26T21:56:10;9.45;;;2.20;;
76631;SDS011;65526;48.578;-4.520;2022-12-26T21:58:38;5.55;;;1.75;;
76631;SDS011;65526;48.578;-4.520;2022-12-26T22:01:24;5.45;;;1.55;;
76631;SDS011;65526;48.578;-4.520;2022-12-26T22:03:51;4.70;;;1.65;;
76631;SDS011;65526;48.578;-4.520;2022-12-26T22:06:36;7.22;;;1.95;;
76631;SDS011;65526;48.578;-4.520;2022-12-26T22:09:04;10.15;;;2.42;;
76631;SDS011;65526;48.578;-4.520;2022-12-26T22:11:30;9.80;;;3.30;;
76631;SDS011;65526;48.578;-4.520;2022-12-26T22:14:15;12.80;;;2.97;;
76631;SDS011;65526;48.578;-4.520;2022-12-26T22:16:42;11.27;;;3.50;;
76631;SDS011;65526;48.578;-4.520;2022-12-26T22:19:09;18.17;;;4.63;;
76631;SDS011;65526;48.578;-4.520;2022-12-26T22:21:36;12.32;;;3.95;;
76631;SDS011;65526;48.578;-4.520;2022-12-26T22:24:02;18.80;;;5.22;;
76631;SDS011;65526;48.578;-4.520;2022-12-26T22:26:29;17.80;;;4.78;;
76631;SDS011;65526;48.578;-4.520;2022-12-26T22:28:56;17.67;;;4.43;;
76631;SDS011;65526;48.578;-4.520;2022-12-26T22:31:27;12.13;;;3.15;;
76631;SDS011;65526;48.578;-4.520;2022-12-26T22:33:59;17.40;;;3.97;;
76631;SDS011;65526;48.578;-4.520;2022-12-26T22:36:27;14.23;;;4.57;;
76631;SDS011;65526;48.578;-4.520;2022-12-26T22:38:55;14.32;;;3.45;;
76631;SDS011;65526;48.578;-4.520;2022-12-26T22:41:21;12.35;;;2.67;;
76631;SDS011;65526;48.578;-4.520;2022-12-26T22:43:48;13.10;;;3.88;;
76631;SDS011;65526;48.578;-4.520;2022-12-26T22:46:15;12.43;;;3.60;;
76631;SDS011;65526;48.578;-4.520;2022-12-26T22:48:42;8.90;;;2.42;;
76631;SDS011;65526;48.578;-4.520;2022-12-26T22:51:13;6.05;;;2.13;;
76631;SDS011;65526;48.578;-4.520;2022-12-26T22:53:41;7.65;;;2.13;;
76631;SDS011;65526;48.578;-4.520;2022-12-26T22:56:08;9.07;;;1.90;;
76631;SDS011;65526;48.578;-4.520;2022-12-26T22:58:37;6.40;;;1.88;;
76631;SDS011;65526;48.578;-4.520;2022-12-26T23:01:14;5.10;;;1.88;;
76631;SDS011;65526;48.578;-4.520;2022-12-26T23:03:42;4.95;;;1.90;;
76631;SDS011;65526;48.578;-4.520;2022-12-26T23:06:23;11.38;;;2.28;;
76631;SDS011;65526;48.578;-4.520;2022-12-26T23:08:52;4.93;;;1.35;;
76631;SDS011;65526;48.578;-4.520;2022-12-26T23:11:22;4.13;;;1.30;;
76631;SDS011;65526;48.578;-4.520;2022-12-26T23:13:51;5.80;;;1.20;;
76631;SDS011;65526;48.578;-4.520;2022-12-26T23:16:30;5.10;;;1.20;;